createdAt,value
2023-04-24T00:00:23.699Z,0
2023-04-24T00:02:35.987Z,0
2023-04-24T00:03:42.136Z,0
2023-04-24T00:05:54.420Z,0
2023-04-24T00:08:06.708Z,0
2023-04-24T00:10:18.996Z,0
2023-04-24T00:11:25.144Z,0
2023-04-24T00:12:31.293Z,0
2023-04-24T00:13:37.425Z,0
2023-04-24T00:14:42.576Z,0
2023-04-24T00:16:54.873Z,0
2023-04-24T00:19:07.167Z,0
2023-04-24T00:20:13.304Z,0
2023-04-24T00:21:19.450Z,0
2023-04-24T00:22:25.594Z,0
2023-04-24T00:25:44.017Z,0
2023-04-24T00:26:50.169Z,0
2023-04-24T00:29:02.440Z,0
2023-04-24T00:30:08.587Z,0
2023-04-24T00:31:14.850Z,0
2023-04-24T00:32:20.998Z,0
2023-04-24T00:33:27.135Z,0
2023-04-24T00:35:39.424Z,0
2023-04-24T00:37:51.722Z,0
2023-04-24T00:38:57.852Z,0
2023-04-24T00:41:10.142Z,0
2023-04-24T00:42:16.279Z,0
2023-04-24T00:43:22.430Z,0
2023-04-24T00:45:34.763Z,0
2023-04-24T00:46:39.872Z,0
2023-04-24T00:47:46.008Z,0
2023-04-24T00:48:52.152Z,0
2023-04-24T00:49:58.306Z,0
2023-04-24T00:51:04.452Z,0
2023-04-24T00:52:10.594Z,0
2023-04-24T00:53:16.744Z,0
2023-04-24T00:54:22.883Z,0
2023-04-24T00:55:29.013Z,0
2023-04-24T00:57:41.306Z,0
2023-04-24T00:59:53.596Z,0
2023-04-24T01:00:58.789Z,0
2023-04-24T01:02:04.924Z,0
2023-04-24T01:03:11.035Z,0
2023-04-24T01:07:35.607Z,0
2023-04-24T01:09:47.893Z,0
2023-04-24T01:10:54.033Z,0
2023-04-24T01:12:00.189Z,0
2023-04-24T01:14:12.471Z,0
2023-04-24T01:15:17.634Z,0
2023-04-24T01:16:23.772Z,0
2023-04-24T01:17:29.918Z,0
2023-04-24T01:18:36.067Z,0
2023-04-24T01:19:42.234Z,0
2023-04-24T01:21:54.488Z,0
2023-04-24T01:23:00.630Z,0
2023-04-24T01:25:12.922Z,0
2023-04-24T01:26:19.055Z,0
2023-04-24T01:27:25.207Z,0
2023-04-24T01:28:31.363Z,0
2023-04-24T01:30:42.663Z,0
2023-04-24T01:32:54.956Z,0
2023-04-24T01:35:07.229Z,0
2023-04-24T01:36:13.361Z,0
2023-04-24T01:37:19.515Z,0
2023-04-24T01:39:31.793Z,0
2023-04-24T01:40:37.938Z,0
2023-04-24T01:42:50.232Z,0
2023-04-24T01:47:13.815Z,0
2023-04-24T01:49:26.104Z,0
2023-04-24T01:50:32.244Z,0
2023-04-24T01:52:44.537Z,0
2023-04-24T01:53:50.675Z,0
2023-04-24T01:56:02.951Z,0
2023-04-24T01:57:09.103Z,0
2023-04-24T01:59:20.400Z,0
2023-04-24T02:00:26.553Z,0
2023-04-24T02:01:32.694Z,0
2023-04-24T02:03:44.975Z,0
2023-04-24T02:04:51.117Z,0
2023-04-24T02:05:57.259Z,0
2023-04-24T02:07:03.437Z,0
2023-04-24T02:08:09.552Z,0
2023-04-24T02:09:15.690Z,0
2023-04-24T02:10:21.865Z,0
2023-04-24T02:11:27.981Z,0
2023-04-24T02:12:33.137Z,0
2023-04-24T02:15:51.568Z,0
2023-04-24T02:21:22.277Z,0
2023-04-24T02:22:28.435Z,0
2023-04-24T02:23:34.574Z,0
2023-04-24T02:24:40.718Z,0
2023-04-24T02:25:46.853Z,0
2023-04-24T02:26:53.133Z,0
2023-04-24T02:27:59.265Z,0
2023-04-24T02:29:05.414Z,0
2023-04-24T02:30:11.548Z,0
2023-04-24T02:32:23.839Z,0
2023-04-24T02:34:36.124Z,0
2023-04-24T02:36:47.432Z,0
2023-04-24T02:38:58.748Z,0
2023-04-24T02:41:11.035Z,0
2023-04-24T02:43:22.338Z,0
2023-04-24T02:45:33.641Z,0
2023-04-24T02:46:38.812Z,0
2023-04-24T02:47:44.950Z,0
2023-04-24T02:48:51.087Z,0
2023-04-24T02:49:57.254Z,0
2023-04-24T02:51:03.382Z,0
2023-04-24T02:54:21.812Z,0
2023-04-24T02:55:27.954Z,0
2023-04-24T02:56:34.096Z,0
2023-04-24T02:57:40.245Z,0
2023-04-24T02:58:46.382Z,0
2023-04-24T02:59:52.525Z,0
2023-04-24T03:02:03.827Z,0
2023-04-24T03:03:09.985Z,0
2023-04-24T03:04:16.105Z,0
2023-04-24T03:05:22.254Z,0
2023-04-24T03:09:46.952Z,0
2023-04-24T03:10:53.089Z,0
2023-04-24T03:11:59.226Z,0
2023-04-24T03:14:11.528Z,0
2023-04-24T03:15:16.676Z,0
2023-04-24T03:17:28.959Z,0
2023-04-24T03:18:35.102Z,0
2023-04-24T03:19:41.245Z,0
2023-04-24T03:20:47.398Z,0
2023-04-24T03:21:53.525Z,0
2023-04-24T03:26:18.103Z,0
2023-04-24T03:29:36.536Z,0
2023-04-24T03:30:41.708Z,0
2023-04-24T03:31:47.839Z,0
2023-04-24T03:32:53.990Z,0
2023-04-24T03:34:00.122Z,0
2023-04-24T03:35:06.274Z,0
2023-04-24T03:36:12.411Z,0
2023-04-24T03:37:18.572Z,0
2023-04-24T03:39:30.831Z,0
2023-04-24T03:40:37.000Z,0
2023-04-24T03:42:49.275Z,0
2023-04-24T03:45:01.559Z,0
2023-04-24T03:46:06.723Z,0
2023-04-24T03:47:12.859Z,0
2023-04-24T03:48:19.011Z,0
2023-04-24T03:49:25.135Z,0
2023-04-24T03:50:31.304Z,0
2023-04-24T03:51:37.446Z,0
2023-04-24T03:53:49.725Z,0
2023-04-24T03:54:55.858Z,0
2023-04-24T03:56:02.014Z,0
2023-04-24T03:57:08.164Z,0
2023-04-24T04:00:26.579Z,0
2023-04-24T04:01:31.743Z,0
2023-04-24T04:02:37.877Z,0
2023-04-24T04:03:44.031Z,0
2023-04-24T04:04:50.167Z,0
2023-04-24T04:05:56.303Z,0
2023-04-24T04:07:02.454Z,0
2023-04-24T04:08:08.603Z,0
2023-04-24T04:11:27.031Z,0
2023-04-24T04:12:33.184Z,0
2023-04-24T04:15:51.596Z,0
2023-04-24T04:16:56.758Z,0
2023-04-24T04:18:02.917Z,0
2023-04-24T04:19:09.499Z,0
2023-04-24T04:20:15.201Z,0
2023-04-24T04:21:21.342Z,0
2023-04-24T04:23:33.612Z,0
2023-04-24T04:24:39.758Z,0
2023-04-24T04:25:45.909Z,0
2023-04-24T04:27:58.189Z,0
2023-04-24T04:33:28.923Z,0
2023-04-24T04:34:34.088Z,0
2023-04-24T04:35:40.212Z,0
2023-04-24T04:37:52.490Z,5
2023-04-24T04:41:10.933Z,11
2023-04-24T04:44:29.356Z,11
2023-04-24T04:50:00.082Z,5
2023-04-24T04:51:05.249Z,5
2023-04-24T04:52:11.415Z,11
2023-04-24T04:53:17.511Z,11
2023-04-24T04:54:23.653Z,11
2023-04-24T04:55:29.812Z,11
2023-04-24T04:56:35.958Z,11
2023-04-24T04:57:42.084Z,11
2023-04-24T04:59:54.372Z,11
2023-04-24T05:01:00.521Z,11
2023-04-24T05:02:06.667Z,16
2023-04-24T05:03:12.826Z,16
2023-04-24T05:05:25.103Z,11
2023-04-24T05:06:30.260Z,16
2023-04-24T05:07:36.407Z,28
2023-04-24T05:08:42.543Z,28
2023-04-24T05:09:48.713Z,28
2023-04-24T05:10:54.833Z,22
2023-04-24T05:12:00.970Z,28
2023-04-24T05:13:07.111Z,28
2023-04-24T05:14:13.253Z,28
2023-04-24T05:15:19.416Z,39
2023-04-24T05:16:25.541Z,45
2023-04-24T05:17:31.699Z,39
2023-04-24T05:18:37.835Z,28
2023-04-24T05:19:43.983Z,22
2023-04-24T05:21:55.285Z,39
2023-04-24T05:24:07.566Z,73
2023-04-24T05:26:19.854Z,78
2023-04-24T05:27:25.999Z,73
2023-04-24T05:28:32.146Z,73
2023-04-24T05:30:44.430Z,106
2023-04-24T05:32:56.727Z,95
2023-04-24T05:34:02.890Z,95
2023-04-24T05:36:14.160Z,84
2023-04-24T05:38:26.455Z,56
2023-04-24T05:39:32.591Z,61
2023-04-24T05:42:51.056Z,90
2023-04-24T05:43:57.167Z,101
2023-04-24T05:45:03.346Z,129
2023-04-24T05:48:21.785Z,157
2023-04-24T05:49:27.883Z,157
2023-04-24T05:50:34.029Z,185
2023-04-24T05:51:40.297Z,270
2023-04-24T05:52:46.434Z,247
2023-04-24T05:54:58.715Z,253
2023-04-24T05:56:04.857Z,225
2023-04-24T05:57:11.003Z,213
2023-04-24T05:58:17.145Z,219
2023-04-24T05:59:23.281Z,241
2023-04-24T06:00:29.432Z,253
2023-04-24T06:02:41.712Z,230
2023-04-24T06:03:47.866Z,225
2023-04-24T06:04:54.017Z,230
2023-04-24T06:05:59.159Z,247
2023-04-24T06:08:11.452Z,219
2023-04-24T06:09:17.587Z,202
2023-04-24T06:11:29.881Z,202
2023-04-24T06:12:36.091Z,225
2023-04-24T06:13:42.172Z,275
2023-04-24T06:14:48.314Z,258
2023-04-24T06:17:00.595Z,185
2023-04-24T06:18:06.760Z,174
2023-04-24T06:19:12.889Z,241
2023-04-24T06:20:18.041Z,320
2023-04-24T06:23:36.471Z,275
2023-04-24T06:24:42.617Z,483
2023-04-24T06:25:48.780Z,534
2023-04-24T06:28:01.041Z,697
2023-04-24T06:29:06.214Z,736
2023-04-24T06:30:12.349Z,517
2023-04-24T06:31:18.496Z,365
2023-04-24T06:32:24.636Z,236
2023-04-24T06:33:30.782Z,236
2023-04-24T06:34:36.944Z,213
2023-04-24T06:36:49.207Z,185
2023-04-24T06:37:55.339Z,163
2023-04-24T06:39:01.523Z,146
2023-04-24T06:40:07.635Z,123
2023-04-24T06:41:13.782Z,123
2023-04-24T06:42:19.935Z,101
2023-04-24T06:44:31.230Z,101
2023-04-24T06:46:43.510Z,106
2023-04-24T06:47:49.658Z,118
2023-04-24T06:48:55.798Z,129
2023-04-24T06:50:01.952Z,146
2023-04-24T06:51:08.086Z,157
2023-04-24T06:52:14.264Z,168
2023-04-24T06:53:20.405Z,163
2023-04-24T06:54:26.533Z,146
2023-04-24T06:55:32.657Z,140
2023-04-24T06:56:38.826Z,168
2023-04-24T06:57:45.070Z,236
2023-04-24T06:58:51.220Z,236
2023-04-24T07:02:09.642Z,360
2023-04-24T07:03:15.787Z,421
2023-04-24T07:05:28.094Z,500
2023-04-24T07:06:34.211Z,528
2023-04-24T07:08:46.499Z,573
2023-04-24T07:09:52.675Z,573
2023-04-24T07:10:58.791Z,585
2023-04-24T07:12:03.946Z,590
2023-04-24T07:13:10.098Z,585
2023-04-24T07:14:16.230Z,489
2023-04-24T07:15:22.371Z,551
2023-04-24T07:17:34.656Z,568
2023-04-24T07:18:40.807Z,472
2023-04-24T07:20:53.093Z,562
2023-04-24T07:21:59.241Z,461
2023-04-24T07:23:05.374Z,331
2023-04-24T07:24:11.516Z,371
2023-04-24T07:26:23.807Z,511
2023-04-24T07:27:29.054Z,360
2023-04-24T07:28:35.112Z,607
2023-04-24T07:29:41.248Z,365
2023-04-24T07:30:47.398Z,405
2023-04-24T07:31:53.531Z,331
2023-04-24T07:34:05.824Z,247
2023-04-24T07:35:11.974Z,219
2023-04-24T07:36:18.108Z,208
2023-04-24T07:38:30.398Z,174
2023-04-24T07:39:36.541Z,129
2023-04-24T07:40:42.973Z,84
2023-04-24T07:42:54.993Z,50
2023-04-24T07:45:06.268Z,78
2023-04-24T07:46:12.429Z,78
2023-04-24T07:47:18.574Z,95
2023-04-24T07:48:24.719Z,90
2023-04-24T07:50:36.988Z,146
2023-04-24T07:51:43.132Z,163
2023-04-24T07:52:49.289Z,180
2023-04-24T07:53:55.414Z,191
2023-04-24T07:56:07.699Z,185
2023-04-24T07:58:19.998Z,185
2023-04-24T07:59:25.158Z,213
2023-04-24T08:02:43.584Z,225
2023-04-24T08:04:55.889Z,140
2023-04-24T08:07:08.230Z,95
2023-04-24T08:08:14.290Z,101
2023-04-24T08:09:20.533Z,112
2023-04-24T08:11:32.868Z,90
2023-04-24T08:12:38.863Z,90
2023-04-24T08:13:45.137Z,95
2023-04-24T08:14:51.276Z,95
2023-04-24T08:15:57.421Z,106
2023-04-24T08:17:03.565Z,135
2023-04-24T08:18:09.705Z,157
2023-04-24T08:20:22.000Z,202
2023-04-24T08:23:40.422Z,309
2023-04-24T08:25:52.702Z,545
2023-04-24T08:26:58.849Z,765
2023-04-24T08:28:03.996Z,1186
2023-04-24T08:29:10.151Z,1192
2023-04-24T08:30:16.294Z,1513
2023-04-24T08:31:22.435Z,1715
2023-04-24T08:32:28.590Z,1456
2023-04-24T08:33:34.734Z,1479
2023-04-24T08:34:40.868Z,1445
2023-04-24T08:35:47.013Z,1456
2023-04-24T08:36:53.164Z,1186
2023-04-24T08:37:59.293Z,545
2023-04-24T08:41:17.731Z,472
2023-04-24T08:42:22.898Z,343
2023-04-24T08:43:29.037Z,331
2023-04-24T08:45:41.317Z,427
2023-04-24T08:46:47.461Z,303
2023-04-24T08:47:53.612Z,298
2023-04-24T08:48:59.735Z,343
2023-04-24T08:51:12.032Z,517
2023-04-24T08:52:18.177Z,1040
2023-04-24T08:53:24.316Z,2806
2023-04-24T08:54:30.460Z,2784
2023-04-24T08:56:42.751Z,2896
2023-04-24T08:57:49.006Z,2880
2023-04-24T08:58:55.156Z,2913
2023-04-24T09:00:01.308Z,2919
2023-04-24T09:01:07.454Z,2936
2023-04-24T09:02:13.585Z,2953
2023-04-24T09:03:19.719Z,2947
2023-04-24T09:04:25.870Z,1237
2023-04-24T09:05:32.005Z,3110
2023-04-24T09:06:38.182Z,2958
2023-04-24T09:07:44.292Z,2958
2023-04-24T09:09:56.588Z,3358
2023-04-24T09:11:02.737Z,916
2023-04-24T09:13:14.034Z,2497
2023-04-24T09:15:26.323Z,3611
2023-04-24T09:18:44.754Z,911
2023-04-24T09:19:50.891Z,1192
2023-04-24T09:20:57.022Z,466
2023-04-24T09:22:03.180Z,585
2023-04-24T09:23:09.308Z,736
2023-04-24T09:24:15.452Z,652
2023-04-24T09:25:21.602Z,551
2023-04-24T09:26:26.762Z,506
2023-04-24T09:27:32.901Z,461
2023-04-24T09:29:45.188Z,472
2023-04-24T09:30:51.333Z,421
2023-04-24T09:31:57.481Z,466
2023-04-24T09:33:03.620Z,427
2023-04-24T09:34:09.764Z,343
2023-04-24T09:35:15.908Z,292
2023-04-24T09:36:22.055Z,270
2023-04-24T09:38:34.345Z,292
2023-04-24T09:40:46.617Z,303
2023-04-24T09:41:51.779Z,264
2023-04-24T09:42:57.939Z,213
2023-04-24T09:44:04.064Z,163
2023-04-24T09:46:16.347Z,168
2023-04-24T09:47:22.487Z,196
2023-04-24T09:48:28.649Z,230
2023-04-24T09:49:34.790Z,253
2023-04-24T09:50:40.922Z,303
2023-04-24T09:51:47.064Z,410
2023-04-24T09:52:53.215Z,540
2023-04-24T09:53:59.360Z,888
2023-04-24T09:55:05.576Z,967
2023-04-24T09:56:10.652Z,3645
2023-04-24T09:58:22.949Z,3898
2023-04-24T09:59:29.076Z,4258
2023-04-24T10:00:35.227Z,2778
2023-04-24T10:02:47.510Z,3645
2023-04-24T10:04:59.815Z,3931
2023-04-24T10:06:05.943Z,3751
2023-04-24T10:07:12.086Z,3555
2023-04-24T10:08:18.232Z,3560
2023-04-24T10:09:24.402Z,1794
2023-04-24T10:10:30.507Z,3892
2023-04-24T10:11:35.776Z,3875
2023-04-24T10:12:41.830Z,3532
2023-04-24T10:14:54.102Z,3718
2023-04-24T10:16:00.256Z,3611
2023-04-24T10:17:06.389Z,3594
2023-04-24T10:19:18.683Z,3847
2023-04-24T10:20:24.839Z,3892
2023-04-24T10:21:30.969Z,3926
2023-04-24T10:22:37.107Z,3870
2023-04-24T10:23:43.253Z,3639
2023-04-24T10:24:49.392Z,3600
2023-04-24T10:25:54.566Z,3706
2023-04-24T10:27:00.689Z,3819
2023-04-24T10:28:06.838Z,3785
2023-04-24T10:30:19.124Z,3740
2023-04-24T10:31:25.275Z,3802
2023-04-24T10:32:31.419Z,3740
2023-04-24T10:33:37.560Z,3667
2023-04-24T10:35:49.851Z,3633
2023-04-24T10:36:55.982Z,3875
2023-04-24T10:38:02.173Z,3791
2023-04-24T10:39:08.275Z,641
2023-04-24T10:41:20.620Z,652
2023-04-24T10:42:25.725Z,697
2023-04-24T10:43:31.870Z,765
2023-04-24T10:44:38.016Z,585
2023-04-24T10:45:44.152Z,478
2023-04-24T10:46:50.296Z,461
2023-04-24T10:49:02.575Z,410
2023-04-24T10:50:08.724Z,410
2023-04-24T10:53:27.156Z,708
2023-04-24T10:54:33.326Z,3813
2023-04-24T10:56:45.584Z,2683
2023-04-24T10:57:50.739Z,1395
2023-04-24T10:58:56.884Z,3656
2023-04-24T11:00:03.025Z,1001
2023-04-24T11:01:09.173Z,438
2023-04-24T11:02:15.295Z,376
2023-04-24T11:03:21.457Z,466
2023-04-24T11:04:27.590Z,725
2023-04-24T11:05:33.744Z,455
2023-04-24T11:09:58.350Z,1271
2023-04-24T11:11:04.456Z,1721
2023-04-24T11:12:09.648Z,956
2023-04-24T11:14:21.894Z,973
2023-04-24T11:15:28.039Z,1029
2023-04-24T11:16:34.193Z,916
2023-04-24T11:17:40.463Z,1361
2023-04-24T11:19:52.748Z,1237
2023-04-24T11:20:58.770Z,1108
2023-04-24T11:22:05.135Z,1074
2023-04-24T11:23:11.267Z,1063
2023-04-24T11:26:29.661Z,663
2023-04-24T11:27:34.624Z,489
2023-04-24T11:28:40.779Z,461
2023-04-24T11:29:46.916Z,427
2023-04-24T11:30:53.193Z,613
2023-04-24T11:31:59.293Z,815
2023-04-24T11:33:05.471Z,511
2023-04-24T11:34:11.498Z,433
2023-04-24T11:35:17.636Z,410
2023-04-24T11:36:23.787Z,450
2023-04-24T11:37:30.029Z,466
2023-04-24T11:38:36.244Z,427
2023-04-24T11:39:42.266Z,528
2023-04-24T11:41:54.488Z,1552
2023-04-24T11:42:59.708Z,2632
2023-04-24T11:44:05.898Z,765
2023-04-24T11:45:11.924Z,669
2023-04-24T11:46:18.264Z,866
2023-04-24T11:47:24.309Z,826
2023-04-24T11:48:30.374Z,1006
2023-04-24T11:49:35.541Z,781
2023-04-24T11:50:40.814Z,725
2023-04-24T11:51:46.961Z,736
2023-04-24T11:53:59.264Z,731
2023-04-24T11:55:05.440Z,652
2023-04-24T11:56:11.427Z,630
2023-04-24T11:58:23.783Z,596
2023-04-24T11:59:29.848Z,1029
2023-04-24T12:00:35.997Z,888
2023-04-24T12:02:48.265Z,781
2023-04-24T12:03:54.407Z,742
2023-04-24T12:04:59.608Z,900
2023-04-24T12:07:10.888Z,922
2023-04-24T12:08:17.032Z,838
2023-04-24T12:09:23.169Z,838
2023-04-24T12:10:29.333Z,866
2023-04-24T12:11:35.453Z,922
2023-04-24T12:12:41.610Z,815
2023-04-24T12:14:53.872Z,781
2023-04-24T12:16:00.031Z,703
2023-04-24T12:17:06.160Z,607
2023-04-24T12:20:24.597Z,506
2023-04-24T12:22:35.900Z,450
2023-04-24T12:23:42.061Z,399
2023-04-24T12:24:48.244Z,393
2023-04-24T12:25:54.331Z,410
2023-04-24T12:27:00.466Z,517
2023-04-24T12:28:06.610Z,646
2023-04-24T12:29:12.762Z,646
2023-04-24T12:31:25.053Z,630
2023-04-24T12:32:31.203Z,680
2023-04-24T12:33:37.335Z,697
2023-04-24T12:34:43.503Z,641
2023-04-24T12:35:48.647Z,562
2023-04-24T12:36:54.786Z,545
2023-04-24T12:39:07.091Z,675
2023-04-24T12:42:25.509Z,483
2023-04-24T12:43:31.645Z,472
2023-04-24T12:44:37.781Z,466
2023-04-24T12:45:43.931Z,556
2023-04-24T12:49:02.353Z,787
2023-04-24T12:50:07.513Z,697
2023-04-24T12:53:25.966Z,523
2023-04-24T12:54:32.082Z,551
2023-04-24T12:55:38.241Z,421
2023-04-24T12:56:44.392Z,360
2023-04-24T12:58:56.654Z,382
2023-04-24T13:00:02.851Z,376
2023-04-24T13:01:08.946Z,354
2023-04-24T13:02:15.090Z,320
2023-04-24T13:05:33.524Z,213
2023-04-24T13:06:38.670Z,219
2023-04-24T13:07:44.818Z,230
2023-04-24T13:08:50.979Z,230
2023-04-24T13:09:57.105Z,213
2023-04-24T13:11:03.248Z,208
2023-04-24T13:12:09.393Z,247
2023-04-24T13:14:21.672Z,618
2023-04-24T13:15:27.817Z,601
2023-04-24T13:16:33.958Z,551
2023-04-24T13:17:40.100Z,500
2023-04-24T13:18:46.242Z,450
2023-04-24T13:20:58.540Z,416
2023-04-24T13:22:03.696Z,461
2023-04-24T13:23:09.832Z,585
2023-04-24T13:24:15.984Z,545
2023-04-24T13:26:28.268Z,500
2023-04-24T13:28:40.546Z,410
2023-04-24T13:29:46.706Z,444
2023-04-24T13:30:52.833Z,433
2023-04-24T13:31:58.983Z,438
2023-04-24T13:33:05.128Z,517
2023-04-24T13:34:11.310Z,506
2023-04-24T13:35:17.443Z,461
2023-04-24T13:37:28.714Z,433
2023-04-24T13:38:34.858Z,455
2023-04-24T13:39:41.001Z,545
2023-04-24T13:40:47.138Z,523
2023-04-24T13:41:53.277Z,455
2023-04-24T13:42:59.445Z,388
2023-04-24T13:46:17.858Z,236
2023-04-24T13:48:30.142Z,298
2023-04-24T13:49:36.290Z,298
2023-04-24T13:50:41.445Z,326
2023-04-24T13:51:47.582Z,337
2023-04-24T13:55:05.059Z,292
2023-04-24T13:56:10.209Z,281
2023-04-24T13:57:16.330Z,270
2023-04-24T13:58:22.509Z,320
2023-04-24T13:59:28.639Z,303
2023-04-24T14:00:34.772Z,286
2023-04-24T14:01:40.909Z,270
2023-04-24T14:02:47.065Z,247
2023-04-24T14:04:59.339Z,303
2023-04-24T14:06:05.497Z,365
2023-04-24T14:08:17.788Z,517
2023-04-24T14:10:30.067Z,585
2023-04-24T14:11:36.222Z,556
2023-04-24T14:12:41.365Z,433
2023-04-24T14:13:47.514Z,354
2023-04-24T14:14:53.646Z,270
2023-04-24T14:15:59.815Z,208
2023-04-24T14:17:05.933Z,185
2023-04-24T14:18:12.110Z,180
2023-04-24T14:19:18.217Z,191
2023-04-24T14:21:30.532Z,230
2023-04-24T14:22:36.650Z,230
2023-04-24T14:24:48.946Z,270
2023-04-24T14:27:01.231Z,354
2023-04-24T14:28:06.390Z,393
2023-04-24T14:29:12.528Z,410
2023-04-24T14:31:24.818Z,376
2023-04-24T14:32:30.980Z,410
2023-04-24T14:33:37.102Z,466
2023-04-24T14:34:43.247Z,506
2023-04-24T14:35:49.385Z,540
2023-04-24T14:36:55.547Z,421
2023-04-24T14:38:01.682Z,376
2023-04-24T14:39:07.815Z,343
2023-04-24T14:40:13.970Z,298
2023-04-24T14:41:20.118Z,343
2023-04-24T14:43:31.393Z,416
2023-04-24T14:44:37.535Z,433
2023-04-24T14:45:43.691Z,450
2023-04-24T14:46:49.841Z,427
2023-04-24T14:47:55.979Z,331
2023-04-24T14:49:02.126Z,298
2023-04-24T14:50:08.264Z,343
2023-04-24T14:51:14.407Z,371
2023-04-24T14:52:20.540Z,371
2023-04-24T14:53:26.718Z,354
2023-04-24T14:54:31.860Z,337
2023-04-24T14:55:37.049Z,275
2023-04-24T14:56:43.174Z,219
2023-04-24T14:57:49.307Z,247
2023-04-24T15:00:01.594Z,264
2023-04-24T15:02:13.872Z,151
2023-04-24T15:03:20.034Z,157
2023-04-24T15:04:26.169Z,180
2023-04-24T15:05:32.312Z,230
2023-04-24T15:06:38.446Z,247
2023-04-24T15:07:44.612Z,225
2023-04-24T15:08:49.766Z,196
2023-04-24T15:09:54.927Z,180
2023-04-24T15:11:01.081Z,180
2023-04-24T15:12:07.209Z,202
2023-04-24T15:14:19.494Z,365
2023-04-24T15:16:31.787Z,399
2023-04-24T15:17:37.919Z,326
2023-04-24T15:18:44.083Z,303
2023-04-24T15:19:50.205Z,241
2023-04-24T15:20:56.365Z,275
2023-04-24T15:22:02.490Z,253
2023-04-24T15:23:08.635Z,270
2023-04-24T15:24:13.789Z,275
2023-04-24T15:25:19.941Z,281
2023-04-24T15:26:26.089Z,275
2023-04-24T15:28:38.366Z,264
2023-04-24T15:29:44.530Z,270
2023-04-24T15:30:50.649Z,275
2023-04-24T15:33:02.941Z,219
2023-04-24T15:34:09.081Z,180
2023-04-24T15:35:15.231Z,163
2023-04-24T15:36:21.357Z,185
2023-04-24T15:37:27.514Z,168
2023-04-24T15:38:32.670Z,202
2023-04-24T15:41:51.098Z,196
2023-04-24T15:42:57.248Z,185
2023-04-24T15:45:09.523Z,168
2023-04-24T15:47:21.821Z,146
2023-04-24T15:49:34.095Z,140
2023-04-24T15:50:40.256Z,129
2023-04-24T15:51:46.401Z,112
2023-04-24T15:52:51.565Z,84
2023-04-24T15:55:03.825Z,67
2023-04-24T15:57:16.117Z,56
2023-04-24T15:58:22.256Z,61
2023-04-24T16:00:34.548Z,73
2023-04-24T16:01:40.684Z,73
2023-04-24T16:08:17.566Z,174
2023-04-24T16:11:36.097Z,281
2023-04-24T16:12:42.242Z,281
2023-04-24T16:14:54.530Z,236
2023-04-24T16:16:00.671Z,225
2023-04-24T16:17:06.813Z,208
2023-04-24T16:19:19.103Z,208
2023-04-24T16:20:25.250Z,208
2023-04-24T16:22:37.535Z,213
2023-04-24T16:23:42.687Z,208
2023-04-24T16:24:48.833Z,196
2023-04-24T16:25:54.976Z,196
2023-04-24T16:27:01.133Z,174
2023-04-24T16:28:07.286Z,163
2023-04-24T16:30:19.546Z,146
2023-04-24T16:31:25.692Z,140
2023-04-24T16:32:31.829Z,140
2023-04-24T16:33:37.974Z,135
2023-04-24T16:34:44.122Z,135
2023-04-24T16:35:50.267Z,118
2023-04-24T16:40:14.849Z,90
2023-04-24T16:41:19.990Z,90
2023-04-24T16:42:26.157Z,95
2023-04-24T16:43:32.274Z,95
2023-04-24T16:44:38.430Z,101
2023-04-24T16:45:44.571Z,101
2023-04-24T16:46:50.706Z,112
2023-04-24T16:47:56.852Z,129
2023-04-24T16:49:03.007Z,123
2023-04-24T16:50:09.147Z,123
2023-04-24T16:51:15.286Z,123
2023-04-24T16:52:21.428Z,123
2023-04-24T16:56:46.002Z,123
2023-04-24T16:57:51.157Z,106
2023-04-24T16:58:57.300Z,84
2023-04-24T17:00:03.444Z,84
2023-04-24T17:01:09.582Z,78
2023-04-24T17:02:15.727Z,73
2023-04-24T17:03:21.894Z,73
2023-04-24T17:04:28.009Z,67
2023-04-24T17:05:34.161Z,67
2023-04-24T17:07:46.447Z,73
2023-04-24T17:08:52.594Z,73
2023-04-24T17:12:11.022Z,84
2023-04-24T17:13:16.177Z,95
2023-04-24T17:14:22.323Z,101
2023-04-24T17:16:34.594Z,101
2023-04-24T17:17:40.759Z,106
2023-04-24T17:18:46.888Z,106
2023-04-24T17:19:53.059Z,101
2023-04-24T17:20:59.167Z,84
2023-04-24T17:23:11.468Z,78
2023-04-24T17:24:17.604Z,84
2023-04-24T17:25:23.770Z,95
2023-04-24T17:26:29.896Z,101
2023-04-24T17:28:41.314Z,73
2023-04-24T17:30:53.479Z,73
2023-04-24T17:31:59.626Z,61
2023-04-24T17:33:05.773Z,61
2023-04-24T17:34:11.917Z,67
2023-04-24T17:35:18.053Z,67
2023-04-24T17:36:24.203Z,61
2023-04-24T17:37:30.345Z,56
2023-04-24T17:40:47.792Z,50
2023-04-24T17:41:52.945Z,50
2023-04-24T17:42:59.095Z,45
2023-04-24T17:45:11.382Z,45
2023-04-24T17:47:23.673Z,39
2023-04-24T17:49:35.952Z,39
2023-04-24T17:50:42.100Z,39
2023-04-24T17:51:48.244Z,39
2023-04-24T17:52:54.403Z,39
2023-04-24T17:54:00.540Z,39
2023-04-24T17:55:06.681Z,39
2023-04-24T17:56:11.863Z,39
2023-04-24T17:57:17.976Z,33
2023-04-24T17:58:24.120Z,33
2023-04-24T18:01:42.563Z,28
2023-04-24T18:02:48.699Z,28
2023-04-24T18:03:54.855Z,28
2023-04-24T18:05:00.998Z,22
2023-04-24T18:06:07.120Z,22
2023-04-24T18:07:13.264Z,22
2023-04-24T18:08:19.407Z,22
2023-04-24T18:10:31.689Z,16
2023-04-24T18:11:36.866Z,16
2023-04-24T18:12:42.991Z,16
2023-04-24T18:13:49.138Z,16
2023-04-24T18:14:55.285Z,16
2023-04-24T18:16:01.435Z,11
2023-04-24T18:18:13.720Z,11
2023-04-24T18:20:25.995Z,11
2023-04-24T18:21:32.149Z,5
2023-04-24T18:22:38.296Z,5
2023-04-24T18:23:44.434Z,5
2023-04-24T18:24:50.576Z,5
2023-04-24T18:25:56.838Z,5
2023-04-24T18:27:02.989Z,5
2023-04-24T18:28:09.123Z,5
2023-04-24T18:29:15.262Z,0
2023-04-24T18:30:21.406Z,0
2023-04-24T18:31:27.564Z,0
2023-04-24T18:32:33.733Z,0
2023-04-24T18:34:45.981Z,0
2023-04-24T18:35:52.126Z,0
2023-04-24T18:36:58.269Z,0
2023-04-24T18:38:04.412Z,0
2023-04-24T18:40:16.701Z,0
2023-04-24T18:41:21.864Z,0
2023-04-24T18:42:27.999Z,0
2023-04-24T18:43:34.132Z,0
2023-04-24T18:44:40.294Z,0
2023-04-24T18:45:46.461Z,0
2023-04-24T18:46:52.578Z,0
2023-04-24T18:47:58.715Z,0
2023-04-24T18:49:04.883Z,0
2023-04-24T18:51:17.146Z,0
2023-04-24T18:52:23.292Z,0
2023-04-24T18:53:29.429Z,0
2023-04-24T18:54:35.590Z,0
2023-04-24T18:55:41.838Z,0
2023-04-24T18:56:47.983Z,0
2023-04-24T18:57:54.132Z,0
2023-04-24T18:59:00.273Z,0
2023-04-24T19:00:06.404Z,0
2023-04-24T19:01:12.556Z,0
2023-04-24T19:02:18.699Z,0
2023-04-24T19:03:23.876Z,0
2023-04-24T19:04:29.049Z,0
2023-04-24T19:05:35.190Z,0
2023-04-24T19:08:53.597Z,0
2023-04-24T19:09:59.741Z,0
2023-04-24T19:11:05.891Z,0
2023-04-24T19:13:18.219Z,0
2023-04-24T19:14:24.329Z,0
2023-04-24T19:15:30.456Z,0
2023-04-24T19:16:36.613Z,0
2023-04-24T19:17:42.757Z,0
2023-04-24T19:18:49.052Z,0
2023-04-24T19:19:55.312Z,0
2023-04-24T19:21:01.455Z,0
2023-04-24T19:22:07.585Z,0
2023-04-24T19:24:19.870Z,0
2023-04-24T19:25:26.030Z,0
2023-04-24T19:26:32.177Z,0
2023-04-24T19:27:38.333Z,0
2023-04-24T19:28:44.558Z,0
2023-04-24T19:29:50.594Z,0
2023-04-24T19:30:56.744Z,0
2023-04-24T19:32:02.881Z,0
2023-04-24T19:33:09.029Z,0
2023-04-24T19:34:14.182Z,0
2023-04-24T19:36:26.481Z,0
2023-04-24T19:38:38.761Z,0
2023-04-24T19:40:51.064Z,0
2023-04-24T19:43:03.346Z,0
2023-04-24T19:44:09.536Z,0
2023-04-24T19:45:15.628Z,0
2023-04-24T19:47:27.934Z,0
2023-04-24T19:48:33.070Z,0
2023-04-24T19:49:39.206Z,0
2023-04-24T19:50:45.361Z,0
2023-04-24T19:51:51.504Z,0
2023-04-24T19:52:57.642Z,0
2023-04-24T19:54:03.781Z,0
2023-04-24T19:55:09.934Z,0
2023-04-24T19:57:22.209Z,0
2023-04-24T19:58:28.348Z,0
2023-04-24T19:59:34.494Z,0
2023-04-24T20:00:40.631Z,0
2023-04-24T20:01:46.802Z,0
2023-04-24T20:02:51.953Z,0
2023-04-24T20:03:58.081Z,0
2023-04-24T20:05:04.222Z,0
2023-04-24T20:06:10.369Z,0
2023-04-24T20:07:16.522Z,0
2023-04-24T20:08:22.665Z,0
2023-04-24T20:09:28.821Z,0
2023-04-24T20:10:33.967Z,0
2023-04-24T20:11:39.140Z,0
2023-04-24T20:13:51.416Z,0
2023-04-24T20:14:57.587Z,0
2023-04-24T20:16:03.721Z,0
2023-04-24T20:17:09.850Z,0
2023-04-24T20:18:16.000Z,0
2023-04-24T20:19:22.132Z,0
2023-04-24T20:20:28.274Z,0
2023-04-24T20:21:34.432Z,0
2023-04-24T20:22:40.574Z,0
2023-04-24T20:23:46.703Z,0
2023-04-24T20:24:52.868Z,0